createdAt,value
2022-09-27T00:02:34.014Z,90.61
2022-09-27T00:05:22.743Z,90.80
2022-09-27T00:08:12.536Z,90.86
2022-09-27T00:11:02.213Z,90.44
2022-09-27T00:13:50.770Z,90.19
2022-09-27T00:16:40.666Z,89.92
2022-09-27T00:19:28.977Z,89.73
2022-09-27T00:22:17.388Z,89.97
2022-09-27T00:25:08.002Z,88.74
2022-09-27T00:27:56.339Z,88.91
2022-09-27T00:30:44.909Z,88.54
2022-09-27T00:33:33.290Z,88.84
2022-09-27T00:36:23.600Z,89.07
2022-09-27T00:39:12.130Z,89.67
2022-09-27T00:42:01.980Z,89.95
2022-09-27T00:45:13.044Z,90.62
2022-09-27T00:48:04.712Z,90.61
2022-09-27T00:50:59.370Z,90.59
2022-09-27T00:53:51.671Z,90.34
2022-09-27T00:56:41.234Z,90.86
2022-09-27T00:59:36.778Z,90.83
2022-09-27T01:02:25.207Z,90.80
2022-09-27T01:05:17.228Z,92.17
2022-09-27T01:08:05.636Z,91.92
2022-09-27T01:11:05.835Z,91.73
2022-09-27T01:14:10.140Z,91.68
2022-09-27T01:17:08.420Z,91.54
2022-09-27T01:20:31.406Z,91.50
2022-09-27T01:23:44.114Z,91.22
2022-09-27T01:27:03.115Z,90.24
2022-09-27T01:30:14.870Z,90.89
2022-09-27T01:33:16.367Z,90.97
2022-09-27T01:36:15.880Z,91.35
2022-09-27T01:39:16.204Z,91.13
2022-09-27T01:42:47.861Z,91.26
2022-09-27T01:45:45.143Z,91.24
2022-09-27T01:48:46.019Z,92.80
2022-09-27T01:51:45.946Z,92.30
2022-09-27T01:54:40.730Z,91.81
2022-09-27T01:57:50.372Z,90.72
2022-09-27T02:00:50.435Z,90.23
2022-09-27T02:03:47.683Z,90.57
2022-09-27T02:07:03.791Z,90.52
2022-09-27T02:09:57.989Z,90.12
2022-09-27T02:12:57.601Z,89.95
2022-09-27T02:15:58.057Z,90.18
2022-09-27T02:19:09.120Z,90.14
2022-09-27T02:22:08.355Z,90.75
2022-09-27T02:25:03.506Z,90.89
2022-09-27T02:28:00.666Z,90.93
2022-09-27T02:30:55.928Z,90.51
2022-09-27T02:33:51.529Z,89.89
2022-09-27T02:36:39.879Z,89.56
2022-09-27T02:39:29.081Z,89.71
2022-09-27T02:42:25.901Z,88.78
2022-09-27T02:45:16.831Z,88.45
2022-09-27T02:48:18.057Z,87.85
2022-09-27T02:51:20.962Z,88.29
2022-09-27T02:54:21.461Z,88.36
2022-09-27T02:57:38.091Z,88.46
2022-09-27T03:00:42.789Z,88.58
2022-09-27T03:03:54.745Z,88.36
2022-09-27T03:06:46.810Z,88.52
2022-09-27T03:09:44.467Z,88.11
2022-09-27T03:12:33.261Z,88.45
2022-09-27T03:15:21.985Z,88.31
2022-09-27T03:18:22.198Z,88.46
2022-09-27T03:21:47.052Z,88.71
2022-09-27T03:24:35.352Z,89.08
2022-09-27T03:27:23.907Z,88.93
2022-09-27T03:30:15.294Z,88.16
2022-09-27T03:33:03.551Z,89.29
2022-09-27T03:36:07.124Z,89.67
2022-09-27T03:38:56.805Z,89.01
2022-09-27T03:41:45.082Z,89.07
2022-09-27T03:44:33.490Z,88.54
2022-09-27T03:47:22.403Z,89.21
2022-09-27T03:50:12.851Z,88.51
2022-09-27T03:53:01.248Z,89.04
2022-09-27T03:55:51.165Z,89.30
2022-09-27T03:58:39.624Z,89.37
2022-09-27T04:01:28.992Z,89.42
2022-09-27T04:04:27.180Z,89.77
2022-09-27T04:07:16.231Z,89.69
2022-09-27T04:10:05.364Z,89.50
2022-09-27T04:12:56.794Z,89.58
2022-09-27T04:15:52.071Z,90.16
2022-09-27T04:18:59.676Z,89.95
2022-09-27T04:21:54.273Z,90.43
2022-09-27T04:24:42.772Z,90.19
2022-09-27T04:27:46.733Z,90.09
2022-09-27T04:30:37.190Z,90.38
2022-09-27T04:33:34.559Z,90.42
2022-09-27T04:36:39.315Z,90.31
2022-09-27T04:39:36.876Z,90.11
2022-09-27T04:42:28.617Z,90.01
2022-09-27T04:45:17.613Z,89.80
2022-09-27T04:48:07.345Z,90.01
2022-09-27T04:50:59.420Z,89.66
2022-09-27T04:53:48.180Z,89.91
2022-09-27T04:56:36.576Z,89.54
2022-09-27T04:59:26.706Z,90.04
2022-09-27T05:02:15.094Z,89.58
2022-09-27T05:05:22.403Z,89.70
2022-09-27T05:08:11.990Z,89.86
2022-09-27T05:11:18.782Z,89.37
2022-09-27T05:17:37.243Z,90.34
2022-09-27T05:20:59.588Z,90.13
2022-09-27T05:23:57.767Z,90.31
2022-09-27T05:26:47.019Z,90.38
2022-09-27T05:29:36.220Z,89.71
2022-09-27T05:32:30.382Z,89.10
2022-09-27T05:35:45.489Z,89.81
2022-09-27T05:38:37.079Z,90.01
2022-09-27T05:41:26.535Z,89.79
2022-09-27T05:44:15.749Z,89.76
2022-09-27T05:47:11.839Z,90.03
2022-09-27T05:50:00.187Z,89.56
2022-09-27T05:52:49.264Z,89.11
2022-09-27T05:55:40.711Z,89.45
2022-09-27T05:58:29.045Z,88.23
2022-09-27T06:01:31.299Z,88.75
2022-09-27T06:04:38.354Z,88.60
2022-09-27T06:08:00.953Z,88.82
2022-09-27T06:11:04.410Z,88.53
2022-09-27T06:13:53.374Z,88.75
2022-09-27T06:16:41.887Z,88.78
2022-09-27T06:19:30.502Z,88.52
2022-09-27T06:22:19.628Z,88.45
2022-09-27T06:25:17.517Z,89.13
2022-09-27T06:28:30.327Z,88.44
2022-09-27T06:31:19.452Z,87.27
2022-09-27T06:34:23.100Z,86.80
2022-09-27T06:37:12.603Z,87.41
2022-09-27T06:40:02.386Z,87.88
2022-09-27T06:43:11.144Z,86.98
2022-09-27T06:46:21.056Z,87.41
2022-09-27T06:49:20.621Z,86.88
2022-09-27T06:52:10.710Z,86.07
2022-09-27T06:54:59.204Z,86.77
2022-09-27T06:58:05.008Z,87.01
2022-09-27T07:00:54.733Z,86.71
2022-09-27T07:04:07.768Z,86.12
2022-09-27T07:07:14.455Z,86.33
2022-09-27T07:10:10.050Z,86.26
2022-09-27T07:13:05.531Z,84.96
2022-09-27T07:15:54.689Z,85.49
2022-09-27T07:18:43.777Z,85.58
2022-09-27T07:21:33.687Z,85.79
2022-09-27T07:24:22.154Z,85.62
2022-09-27T07:27:11.166Z,84.54
2022-09-27T07:29:59.627Z,84.85
2022-09-27T07:32:48.049Z,84.32
2022-09-27T07:35:40.141Z,83.67
2022-09-27T07:38:30.096Z,83.22
2022-09-27T07:41:18.560Z,82.69
2022-09-27T07:44:08.252Z,82.03
2022-09-27T07:47:04.230Z,82.97
2022-09-27T07:50:12.545Z,82.99
2022-09-27T07:53:12.919Z,82.73
2022-09-27T07:56:17.724Z,82.11
2022-09-27T07:59:06.306Z,82.00
2022-09-27T08:01:56.483Z,81.50
2022-09-27T08:04:47.138Z,81.88
2022-09-27T08:07:35.562Z,81.63
2022-09-27T08:10:25.378Z,81.31
2022-09-27T08:13:20.394Z,81.44
2022-09-27T08:16:11.274Z,81.40
2022-09-27T08:19:19.513Z,82.08
2022-09-27T08:22:23.728Z,80.62
2022-09-27T08:25:18.210Z,80.88
2022-09-27T08:28:26.370Z,79.62
2022-09-27T08:31:40.575Z,79.43
2022-09-27T08:34:29.626Z,78.06
2022-09-27T08:37:18.058Z,77.58
2022-09-27T08:40:07.648Z,77.84
2022-09-27T08:43:05.740Z,76.82
2022-09-27T08:46:09.273Z,76.74
2022-09-27T08:49:05.713Z,76.24
2022-09-27T08:51:56.123Z,75.05
2022-09-27T08:54:45.501Z,74.71
2022-09-27T08:57:33.949Z,74.72
2022-09-27T09:00:23.520Z,73.87
2022-09-27T09:03:20.269Z,73.68
2022-09-27T09:06:18.199Z,74.25
2022-09-27T09:09:17.330Z,74.34
2022-09-27T09:12:48.501Z,73.57
2022-09-27T09:15:56.665Z,72.99
2022-09-27T09:19:09.084Z,72.45
2022-09-27T09:22:20.217Z,72.16
2022-09-27T09:25:24.852Z,72.13
2022-09-27T09:28:30.313Z,71.52
2022-09-27T09:31:29.810Z,71.68
2022-09-27T09:34:23.306Z,71.84
2022-09-27T09:37:18.283Z,73.18
2022-09-27T09:40:15.784Z,72.76
2022-09-27T09:43:10.132Z,72.38
2022-09-27T09:46:04.232Z,72.61
2022-09-27T09:48:59.593Z,72.89
2022-09-27T09:51:56.024Z,72.71
2022-09-27T09:54:50.545Z,71.64
2022-09-27T09:57:44.794Z,72.09
2022-09-27T10:00:43.200Z,71.30
2022-09-27T10:03:31.560Z,70.21
2022-09-27T10:06:20.669Z,70.69
2022-09-27T10:09:13.964Z,70.07
2022-09-27T10:12:07.039Z,70.26
2022-09-27T10:15:00.385Z,70.20
2022-09-27T10:17:51.719Z,69.93
2022-09-27T10:20:43.440Z,69.71
2022-09-27T10:23:33.329Z,70.41
2022-09-27T10:26:26.123Z,69.79
2022-09-27T10:29:37.242Z,70.63
2022-09-27T10:32:33.290Z,70.29
2022-09-27T10:35:43.644Z,70.05
2022-09-27T10:38:37.631Z,69.31
2022-09-27T10:41:44.172Z,69.00
2022-09-27T10:44:39.451Z,69.50
2022-09-27T10:47:41.090Z,68.27
2022-09-27T10:50:59.310Z,68.04
2022-09-27T10:54:01.122Z,67.56
2022-09-27T10:57:05.005Z,67.28
2022-09-27T10:59:56.622Z,66.79
2022-09-27T11:02:45.080Z,65.72
2022-09-27T11:05:38.359Z,67.07
2022-09-27T11:08:32.712Z,66.04
2022-09-27T11:11:32.014Z,66.06
2022-09-27T11:14:24.357Z,65.67
2022-09-27T11:17:20.342Z,65.00
2022-09-27T11:20:20.942Z,64.39
2022-09-27T11:23:32.995Z,64.79
2022-09-27T11:26:38.418Z,63.53
2022-09-27T11:29:41.183Z,63.11
2022-09-27T11:33:21.446Z,62.45
2022-09-27T11:36:19.874Z,61.75
2022-09-27T11:39:19.409Z,61.45
2022-09-27T11:42:28.631Z,61.02
2022-09-27T11:48:52.992Z,60.51
2022-09-27T11:52:00.261Z,59.95
2022-09-27T11:55:11.594Z,60.07
2022-09-27T11:58:05.828Z,60.04
2022-09-27T12:01:13.659Z,60.21
2022-09-27T12:04:22.595Z,58.16
2022-09-27T12:07:18.885Z,58.07
2022-09-27T12:10:14.467Z,57.37
2022-09-27T12:13:04.346Z,56.71
2022-09-27T12:15:53.576Z,56.99
2022-09-27T12:18:51.313Z,56.84
2022-09-27T12:22:06.154Z,56.54
2022-09-27T12:24:58.987Z,54.88
2022-09-27T12:28:02.336Z,54.83
2022-09-27T12:31:17.254Z,54.72
2022-09-27T12:34:19.534Z,53.33
2022-09-27T12:37:15.543Z,52.53
2022-09-27T12:40:09.851Z,52.77
2022-09-27T12:43:07.165Z,53.37
2022-09-27T12:46:24.655Z,51.74
2022-09-27T12:49:25.520Z,52.29
2022-09-27T12:52:23.533Z,50.76
2022-09-27T12:55:31.900Z,50.96
2022-09-27T12:58:50.473Z,52.46
2022-09-27T13:01:54.005Z,51.71
2022-09-27T13:05:00.491Z,52.59
2022-09-27T13:07:59.273Z,51.64
2022-09-27T13:10:58.452Z,51.41
2022-09-27T13:13:58.103Z,51.16
2022-09-27T13:16:49.555Z,50.02
2022-09-27T13:19:44.216Z,49.76
2022-09-27T13:22:41.697Z,50.36
2022-09-27T13:25:53.033Z,49.17
2022-09-27T13:29:24.104Z,49.35
2022-09-27T13:32:22.680Z,49.95
2022-09-27T13:35:31.401Z,50.67
2022-09-27T13:38:27.675Z,50.03
2022-09-27T13:41:18.387Z,50.21
2022-09-27T13:44:23.117Z,50.43
2022-09-27T13:47:32.990Z,50.13
2022-09-27T13:50:29.033Z,49.73
2022-09-27T13:53:30.347Z,50.83
2022-09-27T13:56:54.384Z,49.76
2022-09-27T13:59:52.358Z,48.88
2022-09-27T14:03:03.689Z,49.73
2022-09-27T14:05:58.186Z,50.75
2022-09-27T14:08:50.415Z,51.03
2022-09-27T14:11:43.488Z,51.25
2022-09-27T14:14:37.639Z,51.54
2022-09-27T14:17:26.906Z,52.56
2022-09-27T14:20:34.566Z,53.35
2022-09-27T14:23:26.960Z,53.64
2022-09-27T14:26:24.574Z,54.59
2022-09-27T14:29:17.595Z,55.65
2022-09-27T14:32:11.417Z,56.13
2022-09-27T14:35:27.928Z,57.35
2022-09-27T14:38:36.993Z,57.03
2022-09-27T14:41:28.971Z,58.20
2022-09-27T14:44:23.541Z,58.59
2022-09-27T14:47:21.345Z,59.71
2022-09-27T14:50:20.835Z,59.72
2022-09-27T14:53:23.560Z,59.71
2022-09-27T14:56:18.137Z,59.76
2022-09-27T14:59:14.707Z,60.09
2022-09-27T15:02:10.883Z,60.22
2022-09-27T15:05:00.759Z,60.49
2022-09-27T15:07:49.760Z,61.45
2022-09-27T15:10:39.021Z,63.37
2022-09-27T15:13:28.809Z,63.58
2022-09-27T15:16:21.815Z,63.66
2022-09-27T15:19:17.525Z,64.62
2022-09-27T15:22:34.829Z,64.70
2022-09-27T15:25:32.482Z,64.45
2022-09-27T15:28:21.076Z,64.96
2022-09-27T15:31:09.677Z,65.39
2022-09-27T15:33:59.242Z,72.22
2022-09-27T15:36:57.035Z,85.00
2022-09-27T15:39:46.753Z,90.45
2022-09-27T15:42:56.432Z,94.60
2022-09-27T15:45:51.061Z,95.32
2022-09-27T15:48:39.354Z,98.67
2022-09-27T15:51:41.473Z,100.00
2022-09-27T15:54:33.239Z,100.00
2022-09-27T15:57:22.957Z,100.00
2022-09-27T16:00:16.965Z,100.00
2022-09-27T16:03:05.522Z,100.00
2022-09-27T16:05:56.177Z,100.00
2022-09-27T16:08:45.346Z,100.00
2022-09-27T16:11:33.701Z,100.00
2022-09-27T16:14:23.526Z,100.00
2022-09-27T16:17:12.222Z,100.00
2022-09-27T16:20:00.507Z,100.00
2022-09-27T16:22:48.877Z,100.00
2022-09-27T16:25:37.411Z,100.00
2022-09-27T16:28:25.938Z,100.00
2022-09-27T16:31:18.447Z,100.00
2022-09-27T16:34:06.947Z,100.00
2022-09-27T16:36:55.357Z,100.00
2022-09-27T16:39:43.705Z,100.00
2022-09-27T16:42:32.212Z,100.00
2022-09-27T16:45:20.526Z,100.00
2022-09-27T16:48:10.292Z,100.00
2022-09-27T16:51:22.489Z,100.00
2022-09-27T16:54:10.957Z,100.00
2022-09-27T16:57:00.601Z,100.00
2022-09-27T16:59:49.062Z,100.00
2022-09-27T17:02:37.615Z,99.94
2022-09-27T17:05:27.712Z,98.87
2022-09-27T17:08:16.171Z,97.81
2022-09-27T17:11:04.606Z,98.41
2022-09-27T17:13:56.689Z,100.00
2022-09-27T17:16:45.624Z,99.81
2022-09-27T17:19:33.982Z,99.97
2022-09-27T17:22:23.778Z,100.00
2022-09-27T17:25:12.312Z,100.00
2022-09-27T17:28:01.128Z,100.00
2022-09-27T17:30:49.707Z,100.00
2022-09-27T17:33:42.101Z,100.00
2022-09-27T17:36:34.063Z,100.00
2022-09-27T17:39:24.028Z,100.00
2022-09-27T17:42:12.743Z,99.54
2022-09-27T17:45:01.241Z,100.00
2022-09-27T17:48:09.578Z,100.00
2022-09-27T17:51:01.339Z,100.00
2022-09-27T17:53:50.189Z,98.86
2022-09-27T17:56:40.809Z,100.00
2022-09-27T17:59:29.312Z,100.00
2022-09-27T18:02:18.368Z,100.00
2022-09-27T18:05:07.573Z,100.00
2022-09-27T18:07:56.168Z,100.00
2022-09-27T18:10:44.624Z,100.00
2022-09-27T18:13:38.012Z,100.00
2022-09-27T18:16:29.933Z,99.94
2022-09-27T18:19:18.645Z,100.00
2022-09-27T18:22:07.417Z,100.00
2022-09-27T18:24:56.024Z,100.00
2022-09-27T18:27:44.988Z,100.00
2022-09-27T18:30:35.970Z,100.00
2022-09-27T18:33:24.914Z,100.00
2022-09-27T18:36:15.470Z,100.00
2022-09-27T18:39:05.984Z,100.00
2022-09-27T18:41:55.889Z,100.00
2022-09-27T18:44:44.321Z,100.00
2022-09-27T18:47:34.254Z,100.00
2022-09-27T18:50:22.748Z,100.00
2022-09-27T18:53:11.250Z,100.00
2022-09-27T18:56:04.226Z,100.00
2022-09-27T18:58:53.215Z,100.00
2022-09-27T19:01:45.585Z,100.00
2022-09-27T19:04:35.957Z,100.00
2022-09-27T19:07:24.570Z,100.00
2022-09-27T19:10:13.172Z,100.00
2022-09-27T19:13:01.801Z,100.00
2022-09-27T19:15:56.251Z,99.73
2022-09-27T19:18:45.071Z,100.00
2022-09-27T19:21:34.854Z,99.80
2022-09-27T19:24:23.289Z,99.12
2022-09-27T19:27:11.848Z,99.96
2022-09-27T19:30:00.536Z,98.73
2022-09-27T19:32:49.115Z,96.07
2022-09-27T19:35:37.572Z,97.72
2022-09-27T19:38:27.282Z,96.98
2022-09-27T19:41:17.183Z,95.50
2022-09-27T19:44:06.915Z,95.78
2022-09-27T19:46:55.394Z,94.67
2022-09-27T19:49:43.777Z,94.92
2022-09-27T19:52:32.165Z,93.56
2022-09-27T19:55:21.900Z,93.62
2022-09-27T19:58:10.317Z,94.09
2022-09-27T20:01:00.467Z,95.56
2022-09-27T20:03:50.491Z,93.52
2022-09-27T20:06:38.948Z,93.36
2022-09-27T20:09:27.272Z,93.42
2022-09-27T20:12:16.982Z,93.26
2022-09-27T20:15:05.872Z,93.90
2022-09-27T20:17:54.286Z,94.12
2022-09-27T20:20:43.331Z,93.58
2022-09-27T20:23:33.743Z,94.09
2022-09-27T20:26:24.499Z,94.02
2022-09-27T20:29:14.220Z,94.04
2022-09-27T20:32:26.123Z,95.11
2022-09-27T20:35:11.516Z,94.60
2022-09-27T20:37:59.788Z,95.81
2022-09-27T20:40:54.153Z,95.24
2022-09-27T20:43:42.531Z,95.59
2022-09-27T20:46:33.128Z,95.12
2022-09-27T20:49:21.645Z,95.26
2022-09-27T20:52:10.019Z,94.94
2022-09-27T20:54:58.463Z,95.33
2022-09-27T20:57:57.221Z,95.71
2022-09-27T21:00:46.110Z,96.89
2022-09-27T21:03:35.918Z,96.46
2022-09-27T21:06:24.695Z,95.64
2022-09-27T21:09:18.735Z,97.19
2022-09-27T21:12:07.357Z,94.80
2022-09-27T21:14:55.672Z,94.28
2022-09-27T21:17:44.079Z,93.72
2022-09-27T21:20:34.352Z,94.58
2022-09-27T21:23:22.663Z,96.29
2022-09-27T21:26:12.501Z,97.79
2022-09-27T21:29:02.568Z,98.81
2022-09-27T21:31:50.978Z,99.76
2022-09-27T21:34:39.384Z,97.70
2022-09-27T21:37:29.071Z,97.94
2022-09-27T21:40:18.017Z,98.67
2022-09-27T21:43:06.969Z,97.50
2022-09-27T21:45:55.999Z,97.83
2022-09-27T21:48:46.415Z,98.13
2022-09-27T21:51:38.142Z,97.67
2022-09-27T21:54:27.866Z,97.85
2022-09-27T21:57:16.285Z,97.63
2022-09-27T22:00:05.308Z,96.44
2022-09-27T22:02:58.424Z,96.01
2022-09-27T22:05:46.962Z,97.17
2022-09-27T22:08:35.683Z,98.77
2022-09-27T22:11:28.951Z,95.87
2022-09-27T22:14:19.920Z,95.54
2022-09-27T22:17:08.235Z,93.80
2022-09-27T22:19:56.580Z,94.49
2022-09-27T22:22:44.915Z,93.54
2022-09-27T22:25:33.231Z,94.73
2022-09-27T22:28:22.996Z,94.76
2022-09-27T22:31:14.688Z,94.50
2022-09-27T22:34:05.111Z,93.68
2022-09-27T22:36:53.765Z,94.63
2022-09-27T22:39:42.158Z,93.74
2022-09-27T22:42:30.504Z,93.48
2022-09-27T22:45:20.283Z,94.83
2022-09-27T22:48:08.640Z,95.76
2022-09-27T22:50:57.997Z,95.32
2022-09-27T22:53:46.294Z,95.22
2022-09-27T22:56:34.664Z,95.38
2022-09-27T22:59:23.653Z,94.15
2022-09-27T23:02:13.289Z,94.61
2022-09-27T23:05:01.567Z,95.12
2022-09-27T23:07:51.203Z,95.55
2022-09-27T23:10:40.441Z,95.54
2022-09-27T23:13:31.679Z,95.52
2022-09-27T23:16:24.580Z,95.51
2022-09-27T23:19:16.296Z,96.20
2022-09-27T23:22:04.743Z,96.04
2022-09-27T23:24:53.094Z,95.31
2022-09-27T23:27:45.340Z,94.15
2022-09-27T23:30:34.285Z,95.20
2022-09-27T23:33:23.063Z,95.83
2022-09-27T23:36:15.244Z,95.84
2022-09-27T23:39:03.608Z,96.45
2022-09-27T23:41:51.989Z,95.10
2022-09-27T23:44:40.420Z,97.20
2022-09-27T23:47:28.871Z,97.58
2022-09-27T23:50:17.228Z,100.00
2022-09-27T23:53:07.011Z,98.95
2022-09-27T23:56:02.772Z,99.89
2022-09-27T23:58:51.270Z,100.00
